sensor_id;sensor_type;location;lat;lon;timestamp;temperature;humidity
9509;DHT22;4792;50.088;8.122;2022-09-29T00:00:57;7.00;99.90
9509;DHT22;4792;50.088;8.122;2022-09-29T00:03:25;7.00;99.90
9509;DHT22;4792;50.088;8.122;2022-09-29T00:05:54;6.90;99.90
9509;DHT22;4792;50.088;8.122;2022-09-29T00:08:27;6.90;99.90
9509;DHT22;4792;50.088;8.122;2022-09-29T00:10:55;7.00;99.90
9509;DHT22;4792;50.088;8.122;2022-09-29T00:13:23;6.90;99.90
9509;DHT22;4792;50.088;8.122;2022-09-29T00:15:56;6.80;99.90
9509;DHT22;4792;50.088;8.122;2022-09-29T00:18:24;6.90;99.90
9509;DHT22;4792;50.088;8.122;2022-09-29T00:20:57;6.80;99.90
9509;DHT22;4792;50.088;8.122;2022-09-29T00:23:27;6.80;99.90
9509;DHT22;4792;50.088;8.122;2022-09-29T00:26:02;6.80;99.90
9509;DHT22;4792;50.088;8.122;2022-09-29T00:28:31;6.80;99.90
9509;DHT22;4792;50.088;8.122;2022-09-29T00:31:00;6.80;99.90
9509;DHT22;4792;50.088;8.122;2022-09-29T00:33:30;6.80;99.90
9509;DHT22;4792;50.088;8.122;2022-09-29T00:35:59;6.70;99.90
9509;DHT22;4792;50.088;8.122;2022-09-29T00:38:30;6.70;99.90
9509;DHT22;4792;50.088;8.122;2022-09-29T00:40:58;6.70;99.90
9509;DHT22;4792;50.088;8.122;2022-09-29T00:43:48;6.70;99.90
9509;DHT22;4792;50.088;8.122;2022-09-29T00:46:18;6.70;99.90
9509;DHT22;4792;50.088;8.122;2022-09-29T00:48:49;6.70;99.90
9509;DHT22;4792;50.088;8.122;2022-09-29T00:51:19;6.70;99.90
9509;DHT22;4792;50.088;8.122;2022-09-29T00:53:48;6.60;99.90
9509;DHT22;4792;50.088;8.122;2022-09-29T00:56:17;6.70;99.90
9509;DHT22;4792;50.088;8.122;2022-09-29T00:58:50;6.60;99.90
9509;DHT22;4792;50.088;8.122;2022-09-29T01:01:21;6.60;99.90
9509;DHT22;4792;50.088;8.122;2022-09-29T01:03:52;6.60;99.90
9509;DHT22;4792;50.088;8.122;2022-09-29T01:06:24;6.60;99.90
9509;DHT22;4792;50.088;8.122;2022-09-29T01:08:58;6.60;99.90
9509;DHT22;4792;50.088;8.122;2022-09-29T01:11:28;6.60;99.90
9509;DHT22;4792;50.088;8.122;2022-09-29T01:13:59;6.60;99.90
9509;DHT22;4792;50.088;8.122;2022-09-29T01:16:29;6.50;99.90
9509;DHT22;4792;50.088;8.122;2022-09-29T01:18:59;6.50;99.90
9509;DHT22;4792;50.088;8.122;2022-09-29T01:21:34;6.50;99.90
9509;DHT22;4792;50.088;8.122;2022-09-29T01:24:36;6.50;99.90
9509;DHT22;4792;50.088;8.122;2022-09-29T01:27:16;6.50;99.90
9509;DHT22;4792;50.088;8.122;2022-09-29T01:30:07;6.50;99.90
9509;DHT22;4792;50.088;8.122;2022-09-29T01:32:50;6.50;99.90
9509;DHT22;4792;50.088;8.122;2022-09-29T01:35:23;6.50;99.90
9509;DHT22;4792;50.088;8.122;2022-09-29T01:38:01;6.50;99.90
9509;DHT22;4792;50.088;8.122;2022-09-29T01:40:37;6.50;99.90
9509;DHT22;4792;50.088;8.122;2022-09-29T01:43:14;6.50;99.90
9509;DHT22;4792;50.088;8.122;2022-09-29T01:45:46;6.50;99.90
9509;DHT22;4792;50.088;8.122;2022-09-29T01:48:23;6.50;99.90
9509;DHT22;4792;50.088;8.122;2022-09-29T01:50:55;6.40;99.90
9509;DHT22;4792;50.088;8.122;2022-09-29T01:53:28;6.40;99.90
9509;DHT22;4792;50.088;8.122;2022-09-29T01:56:04;6.50;99.90
9509;DHT22;4792;50.088;8.122;2022-09-29T01:58:39;6.40;99.90
9509;DHT22;4792;50.088;8.122;2022-09-29T02:01:12;6.40;99.90
9509;DHT22;4792;50.088;8.122;2022-09-29T02:03:45;6.40;99.90
9509;DHT22;4792;50.088;8.122;2022-09-29T02:06:18;6.50;99.90
9509;DHT22;4792;50.088;8.122;2022-09-29T02:08:50;6.40;99.90
9509;DHT22;4792;50.088;8.122;2022-09-29T02:11:20;6.40;99.90
9509;DHT22;4792;50.088;8.122;2022-09-29T02:13:50;6.40;99.90
9509;DHT22;4792;50.088;8.122;2022-09-29T02:16:23;6.40;99.90
9509;DHT22;4792;50.088;8.122;2022-09-29T02:18:57;6.40;99.90
9509;DHT22;4792;50.088;8.122;2022-09-29T02:21:27;6.40;99.90
9509;DHT22;4792;50.088;8.122;2022-09-29T02:23:55;6.40;99.90
9509;DHT22;4792;50.088;8.122;2022-09-29T02:26:26;6.40;99.90
9509;DHT22;4792;50.088;8.122;2022-09-29T02:28:55;6.40;99.90
9509;DHT22;4792;50.088;8.122;2022-09-29T02:31:24;6.40;99.90
9509;DHT22;4792;50.088;8.122;2022-09-29T02:33:53;6.30;99.90
9509;DHT22;4792;50.088;8.122;2022-09-29T02:36:26;6.30;99.90
9509;DHT22;4792;50.088;8.122;2022-09-29T02:39:01;6.30;99.90
9509;DHT22;4792;50.088;8.122;2022-09-29T02:41:38;6.30;99.90
9509;DHT22;4792;50.088;8.122;2022-09-29T02:44:30;6.30;99.90
9509;DHT22;4792;50.088;8.122;2022-09-29T02:47:12;6.30;99.90
9509;DHT22;4792;50.088;8.122;2022-09-29T02:49:56;6.30;99.90
9509;DHT22;4792;50.088;8.122;2022-09-29T02:52:32;6.30;99.90
9509;DHT22;4792;50.088;8.122;2022-09-29T02:55:08;6.30;99.90
9509;DHT22;4792;50.088;8.122;2022-09-29T02:57:44;6.30;99.90
9509;DHT22;4792;50.088;8.122;2022-09-29T03:00:16;6.20;99.90
9509;DHT22;4792;50.088;8.122;2022-09-29T03:02:44;6.20;99.90
9509;DHT22;4792;50.088;8.122;2022-09-29T03:05:16;6.20;99.90
9509;DHT22;4792;50.088;8.122;2022-09-29T03:07:44;6.20;99.90
9509;DHT22;4792;50.088;8.122;2022-09-29T03:10:14;6.20;99.90
9509;DHT22;4792;50.088;8.122;2022-09-29T03:12:42;6.20;99.90
9509;DHT22;4792;50.088;8.122;2022-09-29T03:15:10;6.20;99.90
9509;DHT22;4792;50.088;8.122;2022-09-29T03:17:39;6.20;99.90
9509;DHT22;4792;50.088;8.122;2022-09-29T03:20:08;6.20;99.90
9509;DHT22;4792;50.088;8.122;2022-09-29T03:22:38;6.20;99.90
9509;DHT22;4792;50.088;8.122;2022-09-29T03:25:06;6.20;99.90
9509;DHT22;4792;50.088;8.122;2022-09-29T03:27:35;6.20;99.90
9509;DHT22;4792;50.088;8.122;2022-09-29T03:30:05;6.20;99.90
9509;DHT22;4792;50.088;8.122;2022-09-29T03:32:33;6.20;99.90
9509;DHT22;4792;50.088;8.122;2022-09-29T03:35:01;6.20;99.90
9509;DHT22;4792;50.088;8.122;2022-09-29T03:37:29;6.20;99.90
9509;DHT22;4792;50.088;8.122;2022-09-29T03:39:59;6.20;99.90
9509;DHT22;4792;50.088;8.122;2022-09-29T03:42:27;6.40;99.90
9509;DHT22;4792;50.088;8.122;2022-09-29T03:44:55;6.30;99.90
9509;DHT22;4792;50.088;8.122;2022-09-29T03:47:23;6.20;99.90
9509;DHT22;4792;50.088;8.122;2022-09-29T03:49:51;6.10;99.90
9509;DHT22;4792;50.088;8.122;2022-09-29T03:52:19;6.10;99.90
9509;DHT22;4792;50.088;8.122;2022-09-29T03:54:47;6.10;99.90
9509;DHT22;4792;50.088;8.122;2022-09-29T03:57:17;6.00;99.90
9509;DHT22;4792;50.088;8.122;2022-09-29T03:59:45;6.00;99.90
9509;DHT22;4792;50.088;8.122;2022-09-29T04:02:13;6.00;99.90
9509;DHT22;4792;50.088;8.122;2022-09-29T04:04:44;6.00;99.90
9509;DHT22;4792;50.088;8.122;2022-09-29T04:07:12;6.00;99.90
9509;DHT22;4792;50.088;8.122;2022-09-29T04:09:40;5.90;99.90
9509;DHT22;4792;50.088;8.122;2022-09-29T04:12:08;5.90;99.90
9509;DHT22;4792;50.088;8.122;2022-09-29T04:14:37;5.90;99.90
9509;DHT22;4792;50.088;8.122;2022-09-29T04:17:06;5.90;99.90
9509;DHT22;4792;50.088;8.122;2022-09-29T04:19:34;5.90;99.90
9509;DHT22;4792;50.088;8.122;2022-09-29T04:22:02;5.90;99.90
9509;DHT22;4792;50.088;8.122;2022-09-29T04:24:30;5.90;99.90
9509;DHT22;4792;50.088;8.122;2022-09-29T04:26:58;5.90;99.90
9509;DHT22;4792;50.088;8.122;2022-09-29T04:29:26;5.90;99.90
9509;DHT22;4792;50.088;8.122;2022-09-29T04:31:55;5.90;99.90
9509;DHT22;4792;50.088;8.122;2022-09-29T04:34:23;5.90;99.90
9509;DHT22;4792;50.088;8.122;2022-09-29T04:36:51;5.90;99.90
9509;DHT22;4792;50.088;8.122;2022-09-29T04:39:19;5.90;99.90
9509;DHT22;4792;50.088;8.122;2022-09-29T04:41:48;5.90;99.90
9509;DHT22;4792;50.088;8.122;2022-09-29T04:44:16;5.90;99.90
9509;DHT22;4792;50.088;8.122;2022-09-29T04:46:45;5.90;99.90
9509;DHT22;4792;50.088;8.122;2022-09-29T04:49:15;5.90;99.90
9509;DHT22;4792;50.088;8.122;2022-09-29T04:51:43;5.90;99.90
9509;DHT22;4792;50.088;8.122;2022-09-29T04:54:11;5.90;99.90
9509;DHT22;4792;50.088;8.122;2022-09-29T04:56:39;5.90;99.90
9509;DHT22;4792;50.088;8.122;2022-09-29T04:59:08;6.00;99.90
9509;DHT22;4792;50.088;8.122;2022-09-29T05:01:36;5.90;99.90
9509;DHT22;4792;50.088;8.122;2022-09-29T05:04:04;5.90;99.90
9509;DHT22;4792;50.088;8.122;2022-09-29T05:06:36;5.90;99.90
9509;DHT22;4792;50.088;8.122;2022-09-29T05:09:05;5.90;99.90
9509;DHT22;4792;50.088;8.122;2022-09-29T05:11:33;5.90;99.90
9509;DHT22;4792;50.088;8.122;2022-09-29T05:14:02;5.90;99.90
9509;DHT22;4792;50.088;8.122;2022-09-29T05:16:30;6.00;99.90
9509;DHT22;4792;50.088;8.122;2022-09-29T05:18:58;5.90;99.90
9509;DHT22;4792;50.088;8.122;2022-09-29T05:21:26;5.90;99.90
9509;DHT22;4792;50.088;8.122;2022-09-29T05:23:56;5.90;99.90
9509;DHT22;4792;50.088;8.122;2022-09-29T05:26:25;5.90;99.90
9509;DHT22;4792;50.088;8.122;2022-09-29T05:28:53;5.90;99.90
9509;DHT22;4792;50.088;8.122;2022-09-29T05:31:21;5.90;99.90
9509;DHT22;4792;50.088;8.122;2022-09-29T05:33:49;5.90;99.90
9509;DHT22;4792;50.088;8.122;2022-09-29T05:36:17;5.90;99.90
9509;DHT22;4792;50.088;8.122;2022-09-29T05:38:45;6.00;99.90
9509;DHT22;4792;50.088;8.122;2022-09-29T05:41:16;6.00;99.90
9509;DHT22;4792;50.088;8.122;2022-09-29T05:43:49;6.00;99.90
9509;DHT22;4792;50.088;8.122;2022-09-29T05:46:17;6.00;99.90
9509;DHT22;4792;50.088;8.122;2022-09-29T05:48:45;6.00;99.90
9509;DHT22;4792;50.088;8.122;2022-09-29T05:51:15;6.10;99.90
9509;DHT22;4792;50.088;8.122;2022-09-29T05:53:49;6.10;99.90
9509;DHT22;4792;50.088;8.122;2022-09-29T05:56:19;6.10;99.90
9509;DHT22;4792;50.088;8.122;2022-09-29T05:58:48;6.20;99.90
9509;DHT22;4792;50.088;8.122;2022-09-29T06:01:19;6.20;99.90
9509;DHT22;4792;50.088;8.122;2022-09-29T06:03:47;6.30;99.90
9509;DHT22;4792;50.088;8.122;2022-09-29T06:06:18;6.30;99.90
9509;DHT22;4792;50.088;8.122;2022-09-29T06:08:47;6.40;99.90
9509;DHT22;4792;50.088;8.122;2022-09-29T06:11:16;6.40;99.90
9509;DHT22;4792;50.088;8.122;2022-09-29T06:13:47;6.50;99.90
9509;DHT22;4792;50.088;8.122;2022-09-29T06:16:18;6.60;99.90
9509;DHT22;4792;50.088;8.122;2022-09-29T06:18:47;6.60;99.90
9509;DHT22;4792;50.088;8.122;2022-09-29T06:21:17;6.70;99.90
9509;DHT22;4792;50.088;8.122;2022-09-29T06:23:45;6.80;99.90
9509;DHT22;4792;50.088;8.122;2022-09-29T06:26:15;7.00;99.90
9509;DHT22;4792;50.088;8.122;2022-09-29T06:28:51;7.00;99.90
9509;DHT22;4792;50.088;8.122;2022-09-29T06:31:21;7.00;99.90
9509;DHT22;4792;50.088;8.122;2022-09-29T06:33:50;7.20;99.90
9509;DHT22;4792;50.088;8.122;2022-09-29T06:36:19;7.40;99.90
9509;DHT22;4792;50.088;8.122;2022-09-29T06:39:06;7.40;99.90
9509;DHT22;4792;50.088;8.122;2022-09-29T06:41:35;7.30;99.90
9509;DHT22;4792;50.088;8.122;2022-09-29T06:44:05;7.30;99.90
9509;DHT22;4792;50.088;8.122;2022-09-29T06:46:33;7.30;99.90
9509;DHT22;4792;50.088;8.122;2022-09-29T06:49:01;7.50;99.90
9509;DHT22;4792;50.088;8.122;2022-09-29T06:51:29;7.60;99.90
9509;DHT22;4792;50.088;8.122;2022-09-29T06:54:12;7.70;99.90
9509;DHT22;4792;50.088;8.122;2022-09-29T06:56:40;7.70;99.90
9509;DHT22;4792;50.088;8.122;2022-09-29T06:59:10;7.70;99.90
9509;DHT22;4792;50.088;8.122;2022-09-29T07:01:38;7.80;99.90
9509;DHT22;4792;50.088;8.122;2022-09-29T07:04:06;7.90;99.90
9509;DHT22;4792;50.088;8.122;2022-09-29T07:06:35;7.90;99.90
9509;DHT22;4792;50.088;8.122;2022-09-29T07:09:03;7.90;99.90
9509;DHT22;4792;50.088;8.122;2022-09-29T07:11:31;8.00;99.90
9509;DHT22;4792;50.088;8.122;2022-09-29T07:13:59;7.90;99.90
9509;DHT22;4792;50.088;8.122;2022-09-29T07:16:28;8.10;99.90
9509;DHT22;4792;50.088;8.122;2022-09-29T07:18:57;8.20;99.90
9509;DHT22;4792;50.088;8.122;2022-09-29T07:21:25;8.40;99.90
9509;DHT22;4792;50.088;8.122;2022-09-29T07:23:53;8.50;99.90
9509;DHT22;4792;50.088;8.122;2022-09-29T07:26:27;8.70;99.90
9509;DHT22;4792;50.088;8.122;2022-09-29T07:28:56;8.70;99.90
9509;DHT22;4792;50.088;8.122;2022-09-29T07:31:24;8.80;99.90
9509;DHT22;4792;50.088;8.122;2022-09-29T07:33:55;8.80;99.90
9509;DHT22;4792;50.088;8.122;2022-09-29T07:36:23;8.70;99.90
9509;DHT22;4792;50.088;8.122;2022-09-29T07:38:51;8.80;99.90
9509;DHT22;4792;50.088;8.122;2022-09-29T07:41:21;8.80;99.90
9509;DHT22;4792;50.088;8.122;2022-09-29T07:43:49;8.80;99.90
9509;DHT22;4792;50.088;8.122;2022-09-29T07:46:17;8.90;99.90
9509;DHT22;4792;50.088;8.122;2022-09-29T07:48:45;9.00;99.90
9509;DHT22;4792;50.088;8.122;2022-09-29T07:51:17;9.10;99.90
9509;DHT22;4792;50.088;8.122;2022-09-29T07:53:45;9.30;99.90
9509;DHT22;4792;50.088;8.122;2022-09-29T07:56:16;9.50;99.90
9509;DHT22;4792;50.088;8.122;2022-09-29T07:58:44;9.60;99.90
9509;DHT22;4792;50.088;8.122;2022-09-29T08:01:13;9.70;99.90
9509;DHT22;4792;50.088;8.122;2022-09-29T08:03:44;9.60;99.90
9509;DHT22;4792;50.088;8.122;2022-09-29T08:06:14;9.60;99.90
9509;DHT22;4792;50.088;8.122;2022-09-29T08:08:42;9.70;99.90
9509;DHT22;4792;50.088;8.122;2022-09-29T08:11:28;9.80;99.90
9509;DHT22;4792;50.088;8.122;2022-09-29T08:13:59;9.90;99.90
9509;DHT22;4792;50.088;8.122;2022-09-29T08:16:28;10.10;99.90
9509;DHT22;4792;50.088;8.122;2022-09-29T08:18:57;10.30;99.90
9509;DHT22;4792;50.088;8.122;2022-09-29T08:21:27;10.30;99.90
9509;DHT22;4792;50.088;8.122;2022-09-29T08:23:55;10.50;99.90
9509;DHT22;4792;50.088;8.122;2022-09-29T08:26:23;10.60;99.90
9509;DHT22;4792;50.088;8.122;2022-09-29T08:29:07;10.70;99.90
9509;DHT22;4792;50.088;8.122;2022-09-29T08:31:36;10.70;99.90
9509;DHT22;4792;50.088;8.122;2022-09-29T08:34:05;10.60;99.90
9509;DHT22;4792;50.088;8.122;2022-09-29T08:36:35;10.60;99.90
9509;DHT22;4792;50.088;8.122;2022-09-29T08:39:03;10.70;99.90
9509;DHT22;4792;50.088;8.122;2022-09-29T08:44:33;10.90;99.90
9509;DHT22;4792;50.088;8.122;2022-09-29T08:47:14;11.00;99.90
9509;DHT22;4792;50.088;8.122;2022-09-29T08:49:47;11.10;99.90
9509;DHT22;4792;50.088;8.122;2022-09-29T08:52:20;11.30;99.90
9509;DHT22;4792;50.088;8.122;2022-09-29T08:54:53;11.30;99.90
9509;DHT22;4792;50.088;8.122;2022-09-29T08:57:24;11.40;99.90
9509;DHT22;4792;50.088;8.122;2022-09-29T08:59:54;11.50;99.90
9509;DHT22;4792;50.088;8.122;2022-09-29T09:02:56;11.60;99.90
9509;DHT22;4792;50.088;8.122;2022-09-29T09:05:42;11.70;99.90
9509;DHT22;4792;50.088;8.122;2022-09-29T09:08:21;11.80;99.90
9509;DHT22;4792;50.088;8.122;2022-09-29T09:11:00;12.00;99.90
9509;DHT22;4792;50.088;8.122;2022-09-29T09:13:48;11.90;99.90
9509;DHT22;4792;50.088;8.122;2022-09-29T09:16:28;11.90;99.90
9509;DHT22;4792;50.088;8.122;2022-09-29T09:19:45;11.90;99.90
9509;DHT22;4792;50.088;8.122;2022-09-29T09:22:22;12.00;99.90
9509;DHT22;4792;50.088;8.122;2022-09-29T09:24:56;12.00;99.90
9509;DHT22;4792;50.088;8.122;2022-09-29T09:27:29;12.10;99.90
9509;DHT22;4792;50.088;8.122;2022-09-29T09:30:03;12.10;99.90
9509;DHT22;4792;50.088;8.122;2022-09-29T09:32:36;11.90;99.90
9509;DHT22;4792;50.088;8.122;2022-09-29T09:35:22;12.10;99.90
9509;DHT22;4792;50.088;8.122;2022-09-29T09:37:52;12.30;99.90
9509;DHT22;4792;50.088;8.122;2022-09-29T09:40:25;12.40;99.90
9509;DHT22;4792;50.088;8.122;2022-09-29T09:43:02;12.50;99.90
9509;DHT22;4792;50.088;8.122;2022-09-29T09:45:34;12.40;99.90
9509;DHT22;4792;50.088;8.122;2022-09-29T09:48:09;12.40;99.90
9509;DHT22;4792;50.088;8.122;2022-09-29T09:50:40;12.40;99.90
9509;DHT22;4792;50.088;8.122;2022-09-29T09:53:12;12.50;99.90
9509;DHT22;4792;50.088;8.122;2022-09-29T09:55:44;12.80;99.90
9509;DHT22;4792;50.088;8.122;2022-09-29T09:58:33;12.90;99.90
9509;DHT22;4792;50.088;8.122;2022-09-29T10:01:06;13.10;99.90
9509;DHT22;4792;50.088;8.122;2022-09-29T10:03:38;13.20;99.90
9509;DHT22;4792;50.088;8.122;2022-09-29T10:06:06;13.40;99.90
9509;DHT22;4792;50.088;8.122;2022-09-29T10:08:38;13.60;99.90
9509;DHT22;4792;50.088;8.122;2022-09-29T10:11:22;13.80;99.90
9509;DHT22;4792;50.088;8.122;2022-09-29T10:13:57;13.90;99.90
9509;DHT22;4792;50.088;8.122;2022-09-29T10:16:30;13.90;99.90
9509;DHT22;4792;50.088;8.122;2022-09-29T10:18:59;14.00;99.90
9509;DHT22;4792;50.088;8.122;2022-09-29T10:21:38;14.10;99.90
9509;DHT22;4792;50.088;8.122;2022-09-29T10:24:21;14.10;99.90
9509;DHT22;4792;50.088;8.122;2022-09-29T10:26:53;14.20;99.90
9509;DHT22;4792;50.088;8.122;2022-09-29T10:29:27;14.00;99.90
9509;DHT22;4792;50.088;8.122;2022-09-29T10:32:02;13.80;99.90
9509;DHT22;4792;50.088;8.122;2022-09-29T10:34:32;13.70;99.90
9509;DHT22;4792;50.088;8.122;2022-09-29T10:37:03;13.60;99.90
9509;DHT22;4792;50.088;8.122;2022-09-29T10:39:36;13.70;99.90
9509;DHT22;4792;50.088;8.122;2022-09-29T10:42:20;13.80;99.90
9509;DHT22;4792;50.088;8.122;2022-09-29T10:44:51;13.40;99.90
9509;DHT22;4792;50.088;8.122;2022-09-29T10:47:20;13.20;99.90
9509;DHT22;4792;50.088;8.122;2022-09-29T10:50:07;12.90;99.90
9509;DHT22;4792;50.088;8.122;2022-09-29T10:52:36;13.00;99.90
9509;DHT22;4792;50.088;8.122;2022-09-29T10:55:15;13.00;99.90
9509;DHT22;4792;50.088;8.122;2022-09-29T10:57:45;12.90;99.90
9509;DHT22;4792;50.088;8.122;2022-09-29T11:00:30;12.70;99.90
9509;DHT22;4792;50.088;8.122;2022-09-29T11:03:06;12.80;99.90
9509;DHT22;4792;50.088;8.122;2022-09-29T11:05:50;12.80;99.90
9509;DHT22;4792;50.088;8.122;2022-09-29T11:08:19;12.80;99.90
9509;DHT22;4792;50.088;8.122;2022-09-29T11:11:03;12.80;99.90
9509;DHT22;4792;50.088;8.122;2022-09-29T11:13:38;12.70;99.90
9509;DHT22;4792;50.088;8.122;2022-09-29T11:16:14;12.90;99.90
9509;DHT22;4792;50.088;8.122;2022-09-29T11:18:44;12.90;99.90
9509;DHT22;4792;50.088;8.122;2022-09-29T11:24:25;13.40;99.90
9509;DHT22;4792;50.088;8.122;2022-09-29T11:27:01;13.60;99.90
9509;DHT22;4792;50.088;8.122;2022-09-29T11:29:43;13.60;99.90
9509;DHT22;4792;50.088;8.122;2022-09-29T11:32:28;13.40;99.90
9509;DHT22;4792;50.088;8.122;2022-09-29T11:35:09;13.60;99.90
9509;DHT22;4792;50.088;8.122;2022-09-29T11:38:07;13.50;99.90
9509;DHT22;4792;50.088;8.122;2022-09-29T11:40:52;13.20;99.90
9509;DHT22;4792;50.088;8.122;2022-09-29T11:43:42;13.40;99.90
9509;DHT22;4792;50.088;8.122;2022-09-29T11:46:33;13.50;99.90
9509;DHT22;4792;50.088;8.122;2022-09-29T11:49:31;13.70;99.90
9509;DHT22;4792;50.088;8.122;2022-09-29T11:52:12;13.80;99.90
9509;DHT22;4792;50.088;8.122;2022-09-29T11:55:02;14.00;99.90
9509;DHT22;4792;50.088;8.122;2022-09-29T11:57:44;14.10;99.90
9509;DHT22;4792;50.088;8.122;2022-09-29T12:00:16;14.30;99.90
9509;DHT22;4792;50.088;8.122;2022-09-29T12:03:22;14.00;99.90
9509;DHT22;4792;50.088;8.122;2022-09-29T12:06:01;13.90;99.90
9509;DHT22;4792;50.088;8.122;2022-09-29T12:08:45;14.10;99.90
9509;DHT22;4792;50.088;8.122;2022-09-29T12:11:21;14.50;99.90
9509;DHT22;4792;50.088;8.122;2022-09-29T12:14:14;14.70;99.90
9509;DHT22;4792;50.088;8.122;2022-09-29T12:16:49;15.10;99.90
9509;DHT22;4792;50.088;8.122;2022-09-29T12:19:23;15.60;99.90
9509;DHT22;4792;50.088;8.122;2022-09-29T12:21:56;16.00;99.90
9509;DHT22;4792;50.088;8.122;2022-09-29T12:24:32;15.90;99.90
9509;DHT22;4792;50.088;8.122;2022-09-29T12:27:03;16.00;99.90
9509;DHT22;4792;50.088;8.122;2022-09-29T12:29:34;15.80;99.90
9509;DHT22;4792;50.088;8.122;2022-09-29T12:32:10;15.50;99.90
9509;DHT22;4792;50.088;8.122;2022-09-29T12:34:51;15.50;99.90
9509;DHT22;4792;50.088;8.122;2022-09-29T12:37:24;15.30;99.90
9509;DHT22;4792;50.088;8.122;2022-09-29T12:40:00;15.30;99.90
9509;DHT22;4792;50.088;8.122;2022-09-29T12:42:38;15.20;99.90
9509;DHT22;4792;50.088;8.122;2022-09-29T12:45:15;15.30;99.90
9509;DHT22;4792;50.088;8.122;2022-09-29T12:47:52;15.30;99.90
9509;DHT22;4792;50.088;8.122;2022-09-29T12:50:26;15.30;99.90
9509;DHT22;4792;50.088;8.122;2022-09-29T12:52:59;15.20;99.90
9509;DHT22;4792;50.088;8.122;2022-09-29T12:55:40;15.20;99.90
9509;DHT22;4792;50.088;8.122;2022-09-29T12:58:14;15.30;99.90
9509;DHT22;4792;50.088;8.122;2022-09-29T13:00:46;15.10;99.90
9509;DHT22;4792;50.088;8.122;2022-09-29T13:06:30;15.50;99.90
9509;DHT22;4792;50.088;8.122;2022-09-29T13:09:23;15.50;99.90
9509;DHT22;4792;50.088;8.122;2022-09-29T13:12:10;15.60;99.90
9509;DHT22;4792;50.088;8.122;2022-09-29T13:15:21;15.50;99.90
9509;DHT22;4792;50.088;8.122;2022-09-29T13:18:05;15.30;99.90
9509;DHT22;4792;50.088;8.122;2022-09-29T13:20:41;15.60;99.90
9509;DHT22;4792;50.088;8.122;2022-09-29T13:23:47;16.00;99.90
9509;DHT22;4792;50.088;8.122;2022-09-29T13:26:35;16.00;99.90
9509;DHT22;4792;50.088;8.122;2022-09-29T13:29:11;15.80;99.90
9509;DHT22;4792;50.088;8.122;2022-09-29T13:31:40;15.50;99.90
9509;DHT22;4792;50.088;8.122;2022-09-29T13:34:20;15.60;99.90
9509;DHT22;4792;50.088;8.122;2022-09-29T13:36:51;15.50;99.90
9509;DHT22;4792;50.088;8.122;2022-09-29T13:39:24;15.20;99.90
9509;DHT22;4792;50.088;8.122;2022-09-29T13:41:54;15.30;99.90
9509;DHT22;4792;50.088;8.122;2022-09-29T13:44:24;15.10;99.90
9509;DHT22;4792;50.088;8.122;2022-09-29T13:46:54;14.90;99.90
9509;DHT22;4792;50.088;8.122;2022-09-29T13:49:25;14.60;99.90
9509;DHT22;4792;50.088;8.122;2022-09-29T13:51:58;14.60;99.90
9509;DHT22;4792;50.088;8.122;2022-09-29T13:54:35;14.50;99.90
9509;DHT22;4792;50.088;8.122;2022-09-29T13:57:20;14.50;99.90
9509;DHT22;4792;50.088;8.122;2022-09-29T14:00:18;14.60;99.90
9509;DHT22;4792;50.088;8.122;2022-09-29T14:02:59;14.80;99.90
9509;DHT22;4792;50.088;8.122;2022-09-29T14:05:51;14.90;99.90
9509;DHT22;4792;50.088;8.122;2022-09-29T14:08:26;15.00;99.90
9509;DHT22;4792;50.088;8.122;2022-09-29T14:11:02;14.90;99.90
9509;DHT22;4792;50.088;8.122;2022-09-29T14:13:40;15.10;99.90
9509;DHT22;4792;50.088;8.122;2022-09-29T14:16:27;15.30;99.90
9509;DHT22;4792;50.088;8.122;2022-09-29T14:19:02;15.60;99.90
9509;DHT22;4792;50.088;8.122;2022-09-29T14:21:50;15.90;99.90
9509;DHT22;4792;50.088;8.122;2022-09-29T14:24:44;16.30;99.90
9509;DHT22;4792;50.088;8.122;2022-09-29T14:27:27;16.40;99.90
9509;DHT22;4792;50.088;8.122;2022-09-29T14:30:11;16.20;99.90
9509;DHT22;4792;50.088;8.122;2022-09-29T14:32:42;16.00;99.90
9509;DHT22;4792;50.088;8.122;2022-09-29T14:35:17;15.80;99.90
9509;DHT22;4792;50.088;8.122;2022-09-29T14:37:51;15.60;99.90
9509;DHT22;4792;50.088;8.122;2022-09-29T14:40:24;15.10;99.90
9509;DHT22;4792;50.088;8.122;2022-09-29T14:43:07;14.90;99.90
9509;DHT22;4792;50.088;8.122;2022-09-29T14:45:45;14.80;99.90
9509;DHT22;4792;50.088;8.122;2022-09-29T14:48:37;14.80;99.90
9509;DHT22;4792;50.088;8.122;2022-09-29T14:51:30;14.70;99.90
9509;DHT22;4792;50.088;8.122;2022-09-29T14:54:27;14.60;99.90
9509;DHT22;4792;50.088;8.122;2022-09-29T14:57:04;14.40;99.90
9509;DHT22;4792;50.088;8.122;2022-09-29T14:59:49;14.30;99.90
9509;DHT22;4792;50.088;8.122;2022-09-29T15:02:23;14.40;99.90
9509;DHT22;4792;50.088;8.122;2022-09-29T15:04:52;14.20;99.90
9509;DHT22;4792;50.088;8.122;2022-09-29T15:07:22;14.00;99.90
9509;DHT22;4792;50.088;8.122;2022-09-29T15:09:52;13.70;99.90
9509;DHT22;4792;50.088;8.122;2022-09-29T15:12:22;13.80;99.90
9509;DHT22;4792;50.088;8.122;2022-09-29T15:14:54;13.70;99.90
9509;DHT22;4792;50.088;8.122;2022-09-29T15:17:39;13.70;99.90
9509;DHT22;4792;50.088;8.122;2022-09-29T15:20:17;13.50;99.90
9509;DHT22;4792;50.088;8.122;2022-09-29T15:23:25;13.50;99.90
9509;DHT22;4792;50.088;8.122;2022-09-29T15:25:59;13.40;99.90
9509;DHT22;4792;50.088;8.122;2022-09-29T15:28:30;13.50;99.90
9509;DHT22;4792;50.088;8.122;2022-09-29T15:31:03;13.40;99.90
9509;DHT22;4792;50.088;8.122;2022-09-29T15:33:35;13.30;99.90
9509;DHT22;4792;50.088;8.122;2022-09-29T15:36:06;13.30;99.90
9509;DHT22;4792;50.088;8.122;2022-09-29T15:38:36;13.20;99.90
9509;DHT22;4792;50.088;8.122;2022-09-29T15:41:14;13.30;99.90
9509;DHT22;4792;50.088;8.122;2022-09-29T15:43:52;13.50;99.90
9509;DHT22;4792;50.088;8.122;2022-09-29T15:46:23;13.70;99.90
9509;DHT22;4792;50.088;8.122;2022-09-29T15:49:16;13.90;99.90
9509;DHT22;4792;50.088;8.122;2022-09-29T15:51:54;14.00;99.90
9509;DHT22;4792;50.088;8.122;2022-09-29T15:54:24;14.00;99.90
9509;DHT22;4792;50.088;8.122;2022-09-29T15:56:52;14.30;99.90
9509;DHT22;4792;50.088;8.122;2022-09-29T15:59:40;14.60;99.90
9509;DHT22;4792;50.088;8.122;2022-09-29T16:02:19;14.60;99.90
9509;DHT22;4792;50.088;8.122;2022-09-29T16:04:52;14.50;99.90
9509;DHT22;4792;50.088;8.122;2022-09-29T16:07:24;14.80;99.90
9509;DHT22;4792;50.088;8.122;2022-09-29T16:10:00;15.40;99.90
9509;DHT22;4792;50.088;8.122;2022-09-29T16:12:33;15.70;99.90
9509;DHT22;4792;50.088;8.122;2022-09-29T16:15:02;16.10;99.90
9509;DHT22;4792;50.088;8.122;2022-09-29T16:17:32;16.10;99.90
9509;DHT22;4792;50.088;8.122;2022-09-29T16:20:01;15.90;99.90
9509;DHT22;4792;50.088;8.122;2022-09-29T16:22:30;15.60;99.90
9509;DHT22;4792;50.088;8.122;2022-09-29T16:25:09;15.30;99.90
9509;DHT22;4792;50.088;8.122;2022-09-29T16:27:45;14.80;99.90
9509;DHT22;4792;50.088;8.122;2022-09-29T16:30:25;14.60;99.90
9509;DHT22;4792;50.088;8.122;2022-09-29T16:33:11;14.30;99.90
9509;DHT22;4792;50.088;8.122;2022-09-29T16:35:56;14.10;99.90
9509;DHT22;4792;50.088;8.122;2022-09-29T16:38:35;13.90;99.90
9509;DHT22;4792;50.088;8.122;2022-09-29T16:41:29;13.80;99.90
9509;DHT22;4792;50.088;8.122;2022-09-29T16:44:03;13.90;99.90
9509;DHT22;4792;50.088;8.122;2022-09-29T16:46:33;13.70;99.90
9509;DHT22;4792;50.088;8.122;2022-09-29T16:49:18;13.30;99.90
9509;DHT22;4792;50.088;8.122;2022-09-29T16:51:48;13.20;99.90
9509;DHT22;4792;50.088;8.122;2022-09-29T16:54:20;12.80;99.90
9509;DHT22;4792;50.088;8.122;2022-09-29T16:57:09;12.50;99.90
9509;DHT22;4792;50.088;8.122;2022-09-29T16:59:39;12.10;99.90
9509;DHT22;4792;50.088;8.122;2022-09-29T17:02:08;12.00;99.90
9509;DHT22;4792;50.088;8.122;2022-09-29T17:04:38;11.90;99.90